createdAt,value
2022-09-26T00:00:08.126Z,16.80
2022-09-26T00:01:08.202Z,18.00
2022-09-26T00:02:08.145Z,16.20
2022-09-26T00:03:08.108Z,17.00
2022-09-26T00:04:08.089Z,15.70
2022-09-26T00:05:08.072Z,16.80
2022-09-26T00:06:08.072Z,15.20
2022-09-26T00:07:08.069Z,16.10
2022-09-26T00:08:08.052Z,15.70
2022-09-26T00:09:08.048Z,15.20
2022-09-26T00:10:08.026Z,15.90
2022-09-26T00:11:08.069Z,15.60
2022-09-26T00:12:08.018Z,17.20
2022-09-26T00:13:07.999Z,14.00
2022-09-26T00:14:08.008Z,15.00
2022-09-26T00:15:07.993Z,15.80
2022-09-26T00:16:07.948Z,14.70
2022-09-26T00:17:07.997Z,14.00
2022-09-26T00:18:07.924Z,16.20
2022-09-26T00:19:08.059Z,15.30
2022-09-26T00:20:07.941Z,16.00
2022-09-26T00:21:07.896Z,16.90
2022-09-26T00:22:07.880Z,17.30
2022-09-26T00:23:07.869Z,16.30
2022-09-26T00:24:07.902Z,16.00
2022-09-26T00:25:07.881Z,15.20
2022-09-26T00:26:07.870Z,15.20
2022-09-26T00:27:07.821Z,18.00
2022-09-26T00:28:07.812Z,15.40
2022-09-26T00:29:07.821Z,15.40
2022-09-26T00:30:07.819Z,16.90
2022-09-26T00:31:07.950Z,16.90
2022-09-26T00:32:07.802Z,15.90
2022-09-26T00:33:07.781Z,15.20
2022-09-26T00:34:07.751Z,14.90
2022-09-26T00:35:07.764Z,15.60
2022-09-26T00:36:07.749Z,16.60
2022-09-26T00:37:07.734Z,17.40
2022-09-26T00:38:07.745Z,16.70
2022-09-26T00:39:07.695Z,15.70
2022-09-26T00:40:07.685Z,17.80
2022-09-26T00:41:07.700Z,15.70
2022-09-26T00:42:07.687Z,16.00
2022-09-26T00:43:07.664Z,16.30
2022-09-26T00:44:07.678Z,15.40
2022-09-26T00:45:07.622Z,15.50
2022-09-26T00:46:07.699Z,15.00
2022-09-26T00:47:07.609Z,16.90
2022-09-26T00:48:07.621Z,15.70
2022-09-26T00:49:07.611Z,14.90
2022-09-26T00:50:07.588Z,15.10
2022-09-26T00:51:07.556Z,16.50
2022-09-26T00:52:07.572Z,17.70
2022-09-26T00:53:07.546Z,16.40
2022-09-26T00:54:07.560Z,16.10
2022-09-26T00:55:07.553Z,17.00
2022-09-26T00:56:07.502Z,15.70
2022-09-26T00:57:07.502Z,15.80
2022-09-26T00:58:07.487Z,17.00
2022-09-26T00:59:07.508Z,17.30
2022-09-26T01:00:07.497Z,16.20
2022-09-26T01:01:07.595Z,16.20
2022-09-26T01:02:07.577Z,16.20
2022-09-26T01:03:07.434Z,15.90
2022-09-26T01:04:07.443Z,17.00
2022-09-26T01:05:07.411Z,15.80
2022-09-26T01:06:07.439Z,16.80
2022-09-26T01:07:07.382Z,17.30
2022-09-26T01:08:07.370Z,17.40
2022-09-26T01:09:07.387Z,18.70
2022-09-26T01:10:07.354Z,17.50
2022-09-26T01:11:07.362Z,17.40
2022-09-26T01:12:07.366Z,16.40
2022-09-26T01:13:07.313Z,16.20
2022-09-26T01:14:07.305Z,19.70
2022-09-26T01:15:07.292Z,17.30
2022-09-26T01:16:07.494Z,16.50
2022-09-26T01:17:07.381Z,17.50
2022-09-26T01:18:07.310Z,16.70
2022-09-26T01:19:07.279Z,17.10
2022-09-26T01:20:07.245Z,17.20
2022-09-26T01:21:07.228Z,17.60
2022-09-26T01:22:07.229Z,19.00
2022-09-26T01:23:07.229Z,17.80
2022-09-26T01:24:07.255Z,17.40
2022-09-26T01:25:07.184Z,17.30
2022-09-26T01:26:07.186Z,16.40
2022-09-26T01:27:07.197Z,19.30
2022-09-26T01:28:07.993Z,17.00
2022-09-26T01:29:07.169Z,16.40
2022-09-26T01:30:07.127Z,17.00
2022-09-26T01:31:07.204Z,16.50
2022-09-26T01:32:07.131Z,17.30
2022-09-26T01:33:07.109Z,17.10
2022-09-26T01:34:07.129Z,16.90
2022-09-26T01:35:07.082Z,17.20
2022-09-26T01:36:07.063Z,18.80
2022-09-26T01:37:07.063Z,16.80
2022-09-26T01:38:07.046Z,18.20
2022-09-26T01:39:07.030Z,16.10
2022-09-26T01:40:07.038Z,16.80
2022-09-26T01:41:07.044Z,16.60
2022-09-26T01:42:06.993Z,17.30
2022-09-26T01:43:06.998Z,17.80
2022-09-26T01:44:06.989Z,18.70
2022-09-26T01:45:06.977Z,18.20
2022-09-26T01:46:07.134Z,18.10
2022-09-26T01:47:06.935Z,20.00
2022-09-26T01:48:06.926Z,18.40
2022-09-26T01:49:06.929Z,19.90
2022-09-26T01:50:07.953Z,18.80
2022-09-26T01:51:06.931Z,18.70
2022-09-26T01:52:06.915Z,18.30
2022-09-26T01:53:06.869Z,18.30
2022-09-26T01:54:06.870Z,18.60
2022-09-26T01:55:06.851Z,18.80
2022-09-26T01:56:06.888Z,18.80
2022-09-26T01:57:06.850Z,19.70
2022-09-26T01:58:06.867Z,18.40
2022-09-26T01:59:06.825Z,19.30
2022-09-26T02:00:06.807Z,19.40
2022-09-26T02:01:06.857Z,19.60
2022-09-26T02:02:06.914Z,18.30
2022-09-26T02:03:06.801Z,18.80
2022-09-26T02:04:06.749Z,19.80
2022-09-26T02:05:06.736Z,19.30
2022-09-26T02:06:14.751Z,18.40
2022-09-26T02:07:06.724Z,19.80
2022-09-26T02:08:06.731Z,18.80
2022-09-26T02:09:06.738Z,16.80
2022-09-26T02:10:06.682Z,18.10
2022-09-26T02:11:06.674Z,17.20
2022-09-26T02:12:06.666Z,17.40
2022-09-26T02:13:06.668Z,18.90
2022-09-26T02:14:06.664Z,17.80
2022-09-26T02:15:06.672Z,18.60
2022-09-26T02:16:06.723Z,17.80
2022-09-26T02:17:06.625Z,18.00
2022-09-26T02:18:06.597Z,19.90
2022-09-26T02:19:06.647Z,19.70
2022-09-26T02:20:06.616Z,20.10
2022-09-26T02:21:06.559Z,17.90
2022-09-26T02:22:06.644Z,19.60
2022-09-26T02:23:06.553Z,18.20
2022-09-26T02:24:06.536Z,19.20
2022-09-26T02:25:06.546Z,22.10
2022-09-26T02:26:06.538Z,18.00
2022-09-26T02:27:06.506Z,17.60
2022-09-26T02:28:06.520Z,18.60
2022-09-26T02:29:06.482Z,17.80
2022-09-26T02:30:06.479Z,18.70
2022-09-26T02:31:06.483Z,17.50
2022-09-26T02:32:06.503Z,19.40
2022-09-26T02:33:06.427Z,16.90
2022-09-26T02:34:06.448Z,17.40
2022-09-26T02:35:06.442Z,18.40
2022-09-26T02:36:06.413Z,19.20
2022-09-26T02:37:06.420Z,18.20
2022-09-26T02:38:06.420Z,17.80
2022-09-26T02:39:06.474Z,19.20
2022-09-26T02:40:06.576Z,17.60
2022-09-26T02:41:06.349Z,17.30
2022-09-26T02:42:06.343Z,18.30
2022-09-26T02:43:06.351Z,19.60
2022-09-26T02:44:06.362Z,16.70
2022-09-26T02:45:06.308Z,18.40
2022-09-26T02:46:06.325Z,18.10
2022-09-26T02:47:06.287Z,18.90
2022-09-26T02:48:06.291Z,17.70
2022-09-26T02:49:06.398Z,18.50
2022-09-26T02:50:06.246Z,18.20
2022-09-26T02:51:06.231Z,18.60
2022-09-26T02:52:06.240Z,18.90
2022-09-26T02:53:06.226Z,19.10
2022-09-26T02:54:06.332Z,19.70
2022-09-26T02:55:06.204Z,19.80
2022-09-26T02:56:06.183Z,21.10
2022-09-26T02:57:06.179Z,21.30
2022-09-26T02:58:06.163Z,20.10
2022-09-26T02:59:06.208Z,20.50
2022-09-26T03:00:06.170Z,20.80
2022-09-26T03:01:06.207Z,18.90
2022-09-26T03:02:06.107Z,22.20
2022-09-26T03:03:06.118Z,20.30
2022-09-26T03:04:06.096Z,20.00
2022-09-26T03:05:06.248Z,20.50
2022-09-26T03:06:06.098Z,21.10
2022-09-26T03:07:06.111Z,22.90
2022-09-26T03:08:06.047Z,21.30
2022-09-26T03:09:06.058Z,20.70
2022-09-26T03:10:06.051Z,21.20
2022-09-26T03:11:06.042Z,21.30
2022-09-26T03:12:06.045Z,21.70
2022-09-26T03:13:05.990Z,20.10
2022-09-26T03:14:05.992Z,20.20
2022-09-26T03:15:05.973Z,21.10
2022-09-26T03:16:06.048Z,21.40
2022-09-26T03:17:05.987Z,22.20
2022-09-26T03:18:05.930Z,20.80
2022-09-26T03:19:06.049Z,21.90
2022-09-26T03:20:05.929Z,20.90
2022-09-26T03:21:05.927Z,20.80
2022-09-26T03:22:05.911Z,21.10
2022-09-26T03:23:05.882Z,21.80
2022-09-26T03:24:05.865Z,20.20
2022-09-26T03:25:05.859Z,19.80
2022-09-26T03:26:05.865Z,20.80
2022-09-26T03:27:05.874Z,19.50
2022-09-26T03:28:05.853Z,20.80
2022-09-26T03:29:05.924Z,20.10
2022-09-26T03:30:05.808Z,18.50
2022-09-26T03:31:05.815Z,20.40
2022-09-26T03:32:05.917Z,21.90
2022-09-26T03:33:05.785Z,20.90
2022-09-26T03:34:05.812Z,21.50
2022-09-26T03:35:05.740Z,20.30
2022-09-26T03:36:05.731Z,20.10
2022-09-26T03:37:05.745Z,20.70
2022-09-26T03:38:05.750Z,21.40
2022-09-26T03:39:05.785Z,20.10
2022-09-26T03:40:05.722Z,20.80
2022-09-26T03:41:05.680Z,21.20
2022-09-26T03:42:05.700Z,20.90
2022-09-26T03:43:05.791Z,21.50
2022-09-26T03:44:05.653Z,18.40
2022-09-26T03:45:05.666Z,19.70
2022-09-26T03:46:05.719Z,20.20
2022-09-26T03:47:05.663Z,20.20
2022-09-26T03:48:05.649Z,21.60
2022-09-26T03:49:05.707Z,19.00
2022-09-26T03:50:05.594Z,20.10
2022-09-26T03:51:05.596Z,20.50
2022-09-26T03:52:05.599Z,18.90
2022-09-26T03:53:05.544Z,20.40
2022-09-26T03:54:05.565Z,19.80
2022-09-26T03:55:05.524Z,19.00
2022-09-26T03:56:05.531Z,19.10
2022-09-26T03:57:05.528Z,21.30
2022-09-26T03:58:05.539Z,20.90
2022-09-26T03:59:05.613Z,20.90
2022-09-26T04:00:05.482Z,19.90
2022-09-26T04:01:05.553Z,20.90
2022-09-26T04:02:05.512Z,20.00
2022-09-26T04:03:05.465Z,20.30
2022-09-26T04:04:05.428Z,20.90
2022-09-26T04:05:05.416Z,20.80
2022-09-26T04:06:05.421Z,21.00
2022-09-26T04:07:05.403Z,21.60
2022-09-26T04:08:05.409Z,20.40
2022-09-26T04:09:05.528Z,21.70
2022-09-26T04:10:05.351Z,20.60
2022-09-26T04:11:05.348Z,22.60
2022-09-26T04:12:05.335Z,20.30
2022-09-26T04:13:05.349Z,22.20
2022-09-26T04:14:05.370Z,21.20
2022-09-26T04:15:05.346Z,20.30
2022-09-26T04:16:05.356Z,21.20
2022-09-26T04:17:05.293Z,20.90
2022-09-26T04:18:05.273Z,21.30
2022-09-26T04:19:05.286Z,20.40
2022-09-26T04:20:05.255Z,19.80
2022-09-26T04:21:09.734Z,20.00
2022-09-26T04:22:05.221Z,21.40
2022-09-26T04:23:05.209Z,21.10
2022-09-26T04:24:05.247Z,19.50
2022-09-26T04:25:05.228Z,19.60
2022-09-26T04:26:05.230Z,19.70
2022-09-26T04:27:05.166Z,16.90
2022-09-26T04:28:05.172Z,17.30
2022-09-26T04:29:05.157Z,17.10
2022-09-26T04:30:05.175Z,18.90
2022-09-26T04:31:05.225Z,17.40
2022-09-26T04:32:05.220Z,18.90
2022-09-26T04:33:05.114Z,17.60
2022-09-26T04:34:05.114Z,17.30
2022-09-26T04:35:05.110Z,19.00
2022-09-26T04:36:05.078Z,19.90
2022-09-26T04:37:05.097Z,16.20
2022-09-26T04:38:05.048Z,19.00
2022-09-26T04:39:05.031Z,17.90
2022-09-26T04:40:05.019Z,16.40
2022-09-26T04:41:05.087Z,18.00
2022-09-26T04:42:05.032Z,16.50
2022-09-26T04:43:05.013Z,17.20
2022-09-26T04:44:04.974Z,18.80
2022-09-26T04:45:05.040Z,17.40
2022-09-26T04:46:05.080Z,18.10
2022-09-26T04:47:04.964Z,17.60
2022-09-26T04:48:04.968Z,16.60
2022-09-26T04:49:04.921Z,16.30
2022-09-26T04:50:04.907Z,18.10
2022-09-26T04:51:04.920Z,19.30
2022-09-26T04:52:04.925Z,17.40
2022-09-26T04:53:04.903Z,17.80
2022-09-26T04:54:04.908Z,19.60
2022-09-26T04:55:04.855Z,16.90
2022-09-26T04:56:04.841Z,16.30
2022-09-26T04:57:04.838Z,16.70
2022-09-26T04:58:04.833Z,16.20
2022-09-26T04:59:04.847Z,15.40
2022-09-26T05:00:04.808Z,17.30
2022-09-26T05:01:04.890Z,17.50
2022-09-26T05:02:04.862Z,17.10
2022-09-26T05:03:04.805Z,15.90
2022-09-26T05:04:04.772Z,15.10
2022-09-26T05:05:04.778Z,16.00
2022-09-26T05:06:04.750Z,17.00
2022-09-26T05:07:04.722Z,16.70
2022-09-26T05:08:04.721Z,16.10
2022-09-26T05:09:04.712Z,16.30
2022-09-26T05:10:04.697Z,16.90
2022-09-26T05:11:04.706Z,16.60
2022-09-26T05:12:04.665Z,17.30
2022-09-26T05:13:04.655Z,16.50
2022-09-26T05:14:04.661Z,15.40
2022-09-26T05:15:04.650Z,19.00
2022-09-26T05:16:04.675Z,17.70
2022-09-26T05:17:04.675Z,16.80
2022-09-26T05:18:04.632Z,16.70
2022-09-26T05:19:04.591Z,17.20
2022-09-26T05:20:04.600Z,18.30
2022-09-26T05:21:04.591Z,17.30
2022-09-26T05:22:04.592Z,16.30
2022-09-26T05:23:04.562Z,16.90
2022-09-26T05:24:04.531Z,16.80
2022-09-26T05:25:04.530Z,19.40
2022-09-26T05:26:04.519Z,17.50
2022-09-26T05:27:04.563Z,16.40
2022-09-26T05:28:04.491Z,17.40
2022-09-26T05:29:08.348Z,17.00
2022-09-26T05:30:04.470Z,16.90
2022-09-26T05:31:04.541Z,17.50
2022-09-26T05:32:04.581Z,17.60
2022-09-26T05:33:04.461Z,17.30
2022-09-26T05:34:04.465Z,16.20
2022-09-26T05:35:04.458Z,17.20
2022-09-26T05:36:04.410Z,17.80
2022-09-26T05:37:04.410Z,17.60
2022-09-26T05:38:04.409Z,17.20
2022-09-26T05:39:04.399Z,17.10
2022-09-26T05:40:04.406Z,16.90
2022-09-26T05:41:04.472Z,17.30
2022-09-26T05:42:04.612Z,18.80
2022-09-26T05:43:04.336Z,18.70
2022-09-26T05:44:04.332Z,18.30
2022-09-26T05:45:04.334Z,15.20
2022-09-26T05:46:04.287Z,15.50
2022-09-26T05:47:04.402Z,18.80
2022-09-26T05:48:04.282Z,15.90
2022-09-26T05:49:04.266Z,17.00
2022-09-26T05:50:04.292Z,16.80
2022-09-26T05:51:04.274Z,16.50
2022-09-26T05:52:04.230Z,16.20
2022-09-26T05:53:04.223Z,15.30
2022-09-26T05:54:04.199Z,16.00
2022-09-26T05:55:04.206Z,14.20
2022-09-26T05:56:04.196Z,14.20
2022-09-26T05:57:04.183Z,14.60
2022-09-26T05:58:04.257Z,13.40
2022-09-26T05:59:04.152Z,14.70
2022-09-26T06:00:04.139Z,13.00
2022-09-26T06:01:04.217Z,11.30
2022-09-26T06:02:04.191Z,14.80
2022-09-26T06:03:04.113Z,13.40
2022-09-26T06:04:04.096Z,12.20
2022-09-26T06:05:04.082Z,11.90
2022-09-26T06:06:04.088Z,13.30
2022-09-26T06:07:04.090Z,11.60
2022-09-26T06:08:04.080Z,10.50
2022-09-26T06:09:04.084Z,10.50
2022-09-26T06:10:04.033Z,10.20
2022-09-26T06:11:04.014Z,10.10
2022-09-26T06:12:04.031Z,8.20
2022-09-26T06:13:04.014Z,9.50
2022-09-26T06:14:03.995Z,9.50
2022-09-26T06:15:03.977Z,8.40
2022-09-26T06:16:04.118Z,7.70
2022-09-26T06:17:03.976Z,6.70
2022-09-26T06:18:03.954Z,8.20
2022-09-26T06:19:03.960Z,6.30
2022-09-26T06:20:03.914Z,6.80
2022-09-26T06:21:03.911Z,5.60
2022-09-26T06:22:03.913Z,6.80
2022-09-26T06:23:03.897Z,8.20
2022-09-26T06:24:03.911Z,6.70
2022-09-26T06:25:03.889Z,6.90
2022-09-26T06:26:03.852Z,9.00
2022-09-26T06:27:03.837Z,10.00
2022-09-26T06:28:03.841Z,9.70
2022-09-26T06:29:03.830Z,7.20
2022-09-26T06:30:03.829Z,5.60
2022-09-26T06:31:03.820Z,7.50
2022-09-26T06:32:03.858Z,6.70
2022-09-26T06:33:03.774Z,6.70
2022-09-26T06:34:03.761Z,8.60
2022-09-26T06:35:03.798Z,7.10
2022-09-26T06:36:03.784Z,8.10
2022-09-26T06:37:03.763Z,9.20
2022-09-26T06:38:03.733Z,7.40
2022-09-26T06:39:03.712Z,7.00
2022-09-26T06:40:03.712Z,9.00
2022-09-26T06:41:03.806Z,7.60
2022-09-26T06:42:03.706Z,7.60
2022-09-26T06:43:03.669Z,6.60
2022-09-26T06:44:03.648Z,8.40
2022-09-26T06:45:03.638Z,7.40
2022-09-26T06:46:03.632Z,9.40
2022-09-26T06:47:03.765Z,7.80
2022-09-26T06:48:03.610Z,9.40
2022-09-26T06:49:03.600Z,9.40
2022-09-26T06:50:03.596Z,8.10
2022-09-26T06:51:03.590Z,8.10
2022-09-26T06:52:03.593Z,7.70
2022-09-26T06:53:15.180Z,9.30
2022-09-26T06:54:04.554Z,8.90
2022-09-26T06:55:03.533Z,9.20
2022-09-26T06:56:03.525Z,7.50
2022-09-26T06:57:03.539Z,6.70
2022-09-26T06:58:03.510Z,8.70
2022-09-26T06:59:03.508Z,7.00
2022-09-26T07:00:03.481Z,6.10
2022-09-26T07:01:03.561Z,7.00
2022-09-26T07:02:03.618Z,6.60
2022-09-26T07:03:03.461Z,6.60
2022-09-26T07:04:03.443Z,7.90
2022-09-26T07:05:03.450Z,6.40
2022-09-26T07:06:03.405Z,6.40
2022-09-26T07:07:03.438Z,7.30
2022-09-26T07:08:03.397Z,7.10
2022-09-26T07:09:12.752Z,9.90
2022-09-26T07:10:04.377Z,9.60
2022-09-26T07:11:30.438Z,7.30
2022-09-26T07:12:17.696Z,8.20
2022-09-26T07:13:04.348Z,6.90
2022-09-26T07:14:03.322Z,5.90
2022-09-26T07:15:03.328Z,6.60
2022-09-26T07:16:03.415Z,7.20
2022-09-26T07:17:03.340Z,7.60
2022-09-26T07:18:03.276Z,6.80
2022-09-26T07:19:03.340Z,6.40
2022-09-26T07:20:03.291Z,7.30
2022-09-26T07:21:03.266Z,7.30
2022-09-26T07:22:03.268Z,7.50
2022-09-26T07:23:03.215Z,6.60
2022-09-26T07:24:03.213Z,6.30
2022-09-26T07:25:03.211Z,6.70
2022-09-26T07:26:03.231Z,7.80
2022-09-26T07:27:03.195Z,7.30
2022-09-26T07:28:03.199Z,7.00
2022-09-26T07:29:03.150Z,7.70
2022-09-26T07:30:03.140Z,9.90
2022-09-26T07:31:03.300Z,7.60
2022-09-26T07:32:03.175Z,7.40
2022-09-26T07:33:03.187Z,7.50
2022-09-26T07:34:03.093Z,8.90
2022-09-26T07:35:03.083Z,8.20
2022-09-26T07:36:05.180Z,7.60
2022-09-26T07:37:03.064Z,8.30
2022-09-26T07:38:03.064Z,6.70
2022-09-26T07:39:03.088Z,7.80
2022-09-26T07:40:03.026Z,6.90
2022-09-26T07:41:03.101Z,8.60
2022-09-26T07:42:03.042Z,7.70
2022-09-26T07:43:19.546Z,9.70
2022-09-26T07:44:53.328Z,8.80
2022-09-26T07:46:03.977Z,7.20
2022-09-26T07:47:03.075Z,7.30
2022-09-26T07:48:02.962Z,9.00
2022-09-26T07:49:02.950Z,9.20
2022-09-26T07:50:02.952Z,8.80
2022-09-26T07:51:08.403Z,8.60
2022-09-26T07:52:03.919Z,8.30
2022-09-26T07:53:02.893Z,8.20
2022-09-26T07:54:02.876Z,9.70
2022-09-26T07:55:02.887Z,7.50
2022-09-26T07:56:02.885Z,10.80
2022-09-26T07:57:02.884Z,9.20
2022-09-26T07:58:02.867Z,9.20
2022-09-26T07:59:02.837Z,7.60
2022-09-26T08:00:02.850Z,9.00
2022-09-26T08:01:02.811Z,9.40
2022-09-26T08:02:02.963Z,8.90
2022-09-26T08:03:02.859Z,9.40
2022-09-26T08:04:02.761Z,9.40
2022-09-26T08:05:02.748Z,9.10
2022-09-26T08:06:02.756Z,8.60
2022-09-26T08:07:02.753Z,10.30
2022-09-26T08:08:02.715Z,8.10
2022-09-26T08:09:02.708Z,9.10
2022-09-26T08:10:02.695Z,10.30
2022-09-26T08:11:04.163Z,7.70
2022-09-26T08:12:02.696Z,10.30
2022-09-26T08:13:02.661Z,10.60
2022-09-26T08:14:02.667Z,10.00
2022-09-26T08:15:02.636Z,8.60
2022-09-26T08:16:02.710Z,7.30
2022-09-26T08:17:02.629Z,7.40
2022-09-26T08:18:02.657Z,8.40
2022-09-26T08:19:02.604Z,8.80
2022-09-26T08:20:02.587Z,8.70
2022-09-26T08:21:02.585Z,9.80
2022-09-26T08:22:02.560Z,7.50
2022-09-26T08:23:02.568Z,8.50
2022-09-26T08:24:02.575Z,10.00
2022-09-26T08:25:02.527Z,9.50
2022-09-26T08:26:02.523Z,8.20
2022-09-26T08:27:02.502Z,8.10
2022-09-26T08:28:02.498Z,6.50
2022-09-26T08:29:02.498Z,9.40
2022-09-26T08:30:02.552Z,7.40
2022-09-26T08:31:02.517Z,8.70
2022-09-26T08:32:02.451Z,6.20
2022-09-26T08:33:02.469Z,7.40
2022-09-26T08:34:02.461Z,6.60
2022-09-26T08:35:02.459Z,6.70
2022-09-26T08:36:02.458Z,7.80
2022-09-26T08:37:02.392Z,7.40
2022-09-26T08:38:02.420Z,5.90
2022-09-26T08:39:02.372Z,6.10
2022-09-26T08:40:02.369Z,5.50
2022-09-26T08:41:02.490Z,6.20
2022-09-26T08:42:02.351Z,6.10
2022-09-26T08:43:02.326Z,6.90
2022-09-26T08:44:02.338Z,6.30
2022-09-26T08:45:02.323Z,7.10
2022-09-26T08:46:02.441Z,7.50
2022-09-26T08:47:02.508Z,8.10
2022-09-26T08:48:02.275Z,6.90
2022-09-26T08:49:02.272Z,6.60
2022-09-26T08:50:02.281Z,7.70
2022-09-26T08:51:02.258Z,6.60
2022-09-26T08:52:02.246Z,6.20
2022-09-26T08:53:02.240Z,7.10
2022-09-26T08:54:02.265Z,5.60
2022-09-26T08:55:02.194Z,6.20
2022-09-26T08:56:02.180Z,6.80
2022-09-26T08:57:02.176Z,5.40
2022-09-26T08:58:02.198Z,6.40
2022-09-26T08:59:02.154Z,6.40
2022-09-26T09:00:02.138Z,5.70
2022-09-26T09:01:02.146Z,6.40
2022-09-26T09:02:02.270Z,6.30
2022-09-26T09:03:02.277Z,5.70
2022-09-26T09:04:02.122Z,7.10
2022-09-26T09:05:02.077Z,5.90
2022-09-26T09:06:02.188Z,6.90
2022-09-26T09:07:02.061Z,5.50
2022-09-26T09:08:02.059Z,5.90
2022-09-26T09:09:02.056Z,5.00
2022-09-26T09:10:02.051Z,5.60
2022-09-26T09:11:02.019Z,6.80
2022-09-26T09:12:02.017Z,6.00
2022-09-26T09:13:02.005Z,6.80
2022-09-26T09:14:01.994Z,5.90
2022-09-26T09:15:24.018Z,5.10
2022-09-26T09:16:03.101Z,5.80
2022-09-26T09:17:01.972Z,5.30
2022-09-26T09:18:01.974Z,5.40
2022-09-26T09:19:01.931Z,4.90
2022-09-26T09:20:01.945Z,5.60
2022-09-26T09:21:01.896Z,6.10
2022-09-26T09:22:01.918Z,5.20
2022-09-26T09:23:01.883Z,4.70
2022-09-26T09:24:01.887Z,4.30
2022-09-26T09:25:01.893Z,5.40
2022-09-26T09:28:07.925Z,5.80
2022-09-26T09:29:02.822Z,4.30
2022-09-26T09:30:03.213Z,5.30
2022-09-26T09:31:01.897Z,5.70
2022-09-26T09:32:01.807Z,4.80
2022-09-26T09:33:01.761Z,4.80
2022-09-26T09:34:01.797Z,8.20
2022-09-26T09:35:01.770Z,4.80
2022-09-26T09:36:01.755Z,4.40
2022-09-26T09:37:01.738Z,5.60
2022-09-26T09:38:01.704Z,5.40
2022-09-26T09:39:01.696Z,4.50
2022-09-26T09:40:01.694Z,5.00
2022-09-26T09:41:01.870Z,5.20
2022-09-26T09:42:01.667Z,4.30
2022-09-26T09:43:01.678Z,4.80
2022-09-26T09:44:01.635Z,4.50
2022-09-26T09:45:01.621Z,5.20
2022-09-26T09:46:01.693Z,4.70
2022-09-26T09:47:01.689Z,4.20
2022-09-26T09:48:01.608Z,4.80
2022-09-26T09:49:01.584Z,4.60
2022-09-26T09:50:01.625Z,5.10
2022-09-26T09:51:01.579Z,5.70
2022-09-26T09:52:01.545Z,5.80
2022-09-26T09:53:01.558Z,5.40
2022-09-26T09:54:01.525Z,4.50
2022-09-26T09:55:01.531Z,4.30
2022-09-26T09:56:01.499Z,4.90
2022-09-26T09:57:01.501Z,4.80
2022-09-26T09:58:01.485Z,4.20
2022-09-26T09:59:01.515Z,5.30
2022-09-26T10:00:02.348Z,6.20
2022-09-26T10:01:01.441Z,5.70
2022-09-26T10:02:01.477Z,6.60
2022-09-26T10:03:01.621Z,5.60
2022-09-26T10:04:01.425Z,5.50
2022-09-26T10:05:01.454Z,6.80
2022-09-26T10:06:01.431Z,6.10
2022-09-26T10:07:01.373Z,7.90
2022-09-26T10:08:01.378Z,6.60
2022-09-26T10:09:39.006Z,5.60
2022-09-26T10:10:02.353Z,7.50
2022-09-26T10:11:01.361Z,6.90
2022-09-26T10:12:01.330Z,7.20
2022-09-26T10:13:01.345Z,6.60
2022-09-26T10:14:01.321Z,6.40
2022-09-26T10:15:01.303Z,6.10
2022-09-26T10:16:01.385Z,6.30
2022-09-26T10:17:01.299Z,5.80
2022-09-26T10:18:23.639Z,8.60
2022-09-26T10:19:03.564Z,5.70
2022-09-26T10:20:01.229Z,5.90
2022-09-26T10:21:01.237Z,5.40
2022-09-26T10:22:01.261Z,4.90
2022-09-26T10:23:01.192Z,4.50
2022-09-26T10:24:01.188Z,6.50
2022-09-26T10:25:01.184Z,4.60
2022-09-26T10:26:01.172Z,3.90
2022-09-26T10:27:01.177Z,4.80
2022-09-26T10:28:01.187Z,3.70
2022-09-26T10:29:01.128Z,3.80
2022-09-26T10:30:01.119Z,3.90
2022-09-26T10:31:01.237Z,3.70
2022-09-26T10:32:01.107Z,3.90
2022-09-26T10:33:01.102Z,3.90
2022-09-26T10:34:01.119Z,5.00
2022-09-26T10:35:01.057Z,4.00
2022-09-26T10:36:01.057Z,4.00
2022-09-26T10:37:01.042Z,3.60
2022-09-26T10:38:01.044Z,4.10
2022-09-26T10:39:01.044Z,3.60
2022-09-26T10:40:01.028Z,4.30
2022-09-26T10:41:01.075Z,4.20
2022-09-26T10:42:01.001Z,3.80
2022-09-26T10:43:00.983Z,4.00
2022-09-26T10:44:00.982Z,3.80
2022-09-26T10:45:00.945Z,3.40
2022-09-26T10:46:00.982Z,4.00
2022-09-26T10:47:00.955Z,4.10
2022-09-26T10:48:00.915Z,4.30
2022-09-26T10:49:00.914Z,3.80
2022-09-26T10:50:01.119Z,3.40
2022-09-26T10:51:00.923Z,3.60
2022-09-26T10:52:01.483Z,3.90
2022-09-26T10:53:00.871Z,3.10
2022-09-26T10:54:00.870Z,3.30
2022-09-26T10:55:00.851Z,4.10
2022-09-26T10:56:00.854Z,3.30
2022-09-26T10:57:00.819Z,3.10
2022-09-26T10:58:00.800Z,3.30
2022-09-26T10:59:00.805Z,3.10
2022-09-26T11:00:00.792Z,3.30
2022-09-26T11:01:00.765Z,4.00
2022-09-26T11:02:00.872Z,3.40
2022-09-26T11:03:00.741Z,3.00
2022-09-26T11:04:00.861Z,3.60
2022-09-26T11:05:00.724Z,3.20
2022-09-26T11:06:00.722Z,2.90
2022-09-26T11:07:00.724Z,3.70
2022-09-26T11:08:00.701Z,3.00
2022-09-26T11:09:00.674Z,2.90
2022-09-26T11:10:00.709Z,2.80
2022-09-26T11:11:00.684Z,2.90
2022-09-26T11:12:00.655Z,3.10
2022-09-26T11:13:00.670Z,2.50
2022-09-26T11:14:00.625Z,2.90
2022-09-26T11:15:00.612Z,3.90
2022-09-26T11:16:00.672Z,2.90
2022-09-26T11:17:00.605Z,3.10
2022-09-26T11:18:00.576Z,3.10
2022-09-26T11:19:00.580Z,2.90
2022-09-26T11:20:00.563Z,3.30
2022-09-26T11:21:00.549Z,5.60
2022-09-26T11:22:05.792Z,3.00
2022-09-26T11:23:01.532Z,3.40
2022-09-26T11:24:00.514Z,3.10
2022-09-26T11:25:00.492Z,2.80
2022-09-26T11:26:00.503Z,3.00
2022-09-26T11:27:00.472Z,2.90
2022-09-26T11:28:00.479Z,2.90
2022-09-26T11:29:00.478Z,2.80
2022-09-26T11:30:00.482Z,2.90
2022-09-26T11:31:00.554Z,2.60
2022-09-26T11:32:00.617Z,2.90
2022-09-26T11:33:00.414Z,3.70
2022-09-26T11:34:00.415Z,2.70
2022-09-26T11:35:00.428Z,3.00
2022-09-26T11:36:00.370Z,2.90
2022-09-26T11:37:00.356Z,2.40
2022-09-26T11:38:00.379Z,2.60
2022-09-26T11:39:00.349Z,2.30
2022-09-26T11:40:00.365Z,2.10
2022-09-26T11:41:00.386Z,2.20
2022-09-26T11:42:00.327Z,2.40
2022-09-26T11:43:00.315Z,2.80
2022-09-26T11:44:00.279Z,2.20
2022-09-26T11:45:00.293Z,2.00
2022-09-26T11:46:00.331Z,2.40
2022-09-26T11:47:00.252Z,2.30
2022-09-26T11:48:00.262Z,1.80
2022-09-26T11:49:00.223Z,1.90
2022-09-26T11:50:00.244Z,2.20
2022-09-26T11:51:00.225Z,2.20
2022-09-26T11:52:00.197Z,2.30
2022-09-26T11:53:00.187Z,1.60
2022-09-26T11:54:00.167Z,1.50
2022-09-26T11:55:00.187Z,1.50
2022-09-26T11:56:00.161Z,1.30
2022-09-26T11:57:00.208Z,1.20
2022-09-26T11:58:03.451Z,1.40
2022-09-26T11:59:00.115Z,1.20
2022-09-26T12:00:00.123Z,1.20
2022-09-26T12:01:00.103Z,1.30
2022-09-26T12:02:00.101Z,3.10
2022-09-26T12:03:00.152Z,1.30
2022-09-26T12:04:00.178Z,1.40
2022-09-26T12:05:00.048Z,1.30
2022-09-26T12:06:00.177Z,1.30
2022-09-26T12:07:07.759Z,1.40
2022-09-26T12:08:00.035Z,1.20
2022-09-26T12:09:00.029Z,1.90
2022-09-26T12:09:59.986Z,1.60
2022-09-26T12:11:00.021Z,1.50
2022-09-26T12:11:59.972Z,1.60
2022-09-26T12:12:59.968Z,1.60
2022-09-26T12:13:59.958Z,1.90
2022-09-26T12:14:59.948Z,3.90
2022-09-26T12:16:00.077Z,1.70
2022-09-26T12:16:59.912Z,1.70
2022-09-26T12:17:59.912Z,1.50
2022-09-26T12:18:59.929Z,2.00
2022-09-26T12:20:00.722Z,1.70
2022-09-26T12:20:59.885Z,1.80
2022-09-26T12:21:59.892Z,1.50
2022-09-26T12:22:59.840Z,1.80
2022-09-26T12:23:59.851Z,2.10
2022-09-26T12:24:59.852Z,1.90
2022-09-26T12:25:59.808Z,1.90
2022-09-26T12:26:59.795Z,1.90
2022-09-26T12:27:59.792Z,2.70
2022-09-26T12:28:59.775Z,2.10
2022-09-26T12:29:59.830Z,3.00
2022-09-26T12:30:59.826Z,2.10
2022-09-26T12:31:59.755Z,2.40
2022-09-26T12:32:59.728Z,3.00
2022-09-26T12:33:59.731Z,3.00
2022-09-26T12:34:59.732Z,2.40
2022-09-26T12:35:59.708Z,3.70
2022-09-26T12:36:59.725Z,2.40
2022-09-26T12:37:59.691Z,3.40
2022-09-26T12:38:59.663Z,2.50
2022-09-26T12:39:59.654Z,2.50
2022-09-26T12:40:59.763Z,2.50
2022-09-26T12:41:59.625Z,3.40
2022-09-26T12:42:59.628Z,2.90
2022-09-26T12:43:59.601Z,2.60
2022-09-26T12:44:59.634Z,2.70
2022-09-26T12:45:59.670Z,2.20
2022-09-26T12:46:59.677Z,3.60
2022-09-26T12:47:59.560Z,4.00
2022-09-26T12:48:59.569Z,2.40
2022-09-26T12:49:59.533Z,2.90
2022-09-26T12:50:59.524Z,3.20
2022-09-26T12:51:59.528Z,2.20
2022-09-26T12:52:59.533Z,2.20
2022-09-26T12:53:59.527Z,2.40
2022-09-26T12:54:59.498Z,2.50
2022-09-26T12:55:59.509Z,3.30
2022-09-26T12:56:59.462Z,2.50
2022-09-26T12:57:59.472Z,2.20
2022-09-26T12:58:59.459Z,2.00
2022-09-26T12:59:59.421Z,1.60
2022-09-26T13:00:59.410Z,1.70
2022-09-26T13:01:59.477Z,1.60
2022-09-26T13:02:59.525Z,2.00
2022-09-26T13:03:59.411Z,2.50
2022-09-26T13:04:59.412Z,1.70
2022-09-26T13:05:59.369Z,1.90
2022-09-26T13:07:17.716Z,1.40
2022-09-26T13:08:00.357Z,2.30